Time;durP1;ratioP1;P1;durP2;ratioP2;P2;SDS_P1;SDS_P2;PMS_P1;PMS_P2;Temp;Humidity;BMP_temperature;BMP_pressure;BME280_temperature;BME280_humidity;BME280_pressure;Samples;Min_cycle;Max_cycle;Signal;HPM_P1;HPM_P2
2022/04/03 00:00:06;;;;;;;6.28;3.00;;;;;;;-2.36;59.58;99455.06;1718135;82;21024;-62
2022/04/03 00:02:35;;;;;;;5.55;2.92;;;;;;;-2.41;59.63;99452.92;1721208;82;21044;-62
2022/04/03 00:05:01;;;;;;;3.65;2.58;;;;;;;-2.44;59.66;99455.48;1706921;82;22393;-63
2022/04/03 00:07:28;;;;;;;5.53;3.00;;;;;;;-2.54;59.59;99458.03;1720570;81;20995;-62
2022/04/03 00:09:55;;;;;;;5.30;2.53;;;;;;;-2.61;59.62;99457.59;1695007;83;21961;-63
2022/04/03 00:12:22;;;;;;;5.27;2.97;;;;;;;-2.69;59.73;99455.44;1671910;84;20980;-62
2022/04/03 00:14:49;;;;;;;;;;;;;;;-2.75;59.74;99451.59;1671556;84;21009;-62
2022/04/03 00:17:15;;;;;;;8.37;3.10;;;;;;;-2.82;59.83;99451.17;1672674;85;21659;-62
2022/04/03 00:19:43;;;;;;;6.15;3.15;;;;;;;-2.89;59.82;99451.99;1675899;85;21010;-62
2022/04/03 00:22:12;;;;;;;5.97;2.92;;;;;;;-2.95;59.88;99451.13;1633825;86;21056;-62
2022/04/03 00:24:38;;;;;;;4.85;2.83;;;;;;;-2.97;59.87;99445.18;1649181;86;20974;-62
2022/04/03 00:27:05;;;;;;;5.45;3.08;;;;;;;-2.96;59.99;99444.31;1673329;85;21126;-62
2022/04/03 00:29:32;;;;;;;5.58;2.25;;;;;;;-3.00;59.94;99446.84;1671628;84;21480;-62
2022/04/03 00:32:01;;;;;;;5.43;3.20;;;;;;;-3.03;59.96;99444.28;1636855;86;21052;-62
2022/04/03 00:34:28;;;;;;;6.62;3.20;;;;;;;-3.07;60.04;99442.16;1631188;86;21037;-62
2022/04/03 00:36:55;;;;;;;6.15;3.40;;;;;;;-3.10;60.02;99439.59;1638826;85;20962;-62
2022/04/03 00:39:22;;;;;;;7.75;4.42;;;;;;;-3.12;60.16;99438.73;1679726;83;20928;-62
2022/04/03 00:41:49;;;;;;;6.97;3.70;;;;;;;-3.13;60.17;99439.59;1675699;83;21083;-62
2022/04/03 00:44:17;;;;;;;8.45;3.52;;;;;;;-3.13;60.23;99436.19;1671678;84;21136;-62
2022/04/03 00:46:47;;;;;;;6.95;4.00;;;;;;;-3.16;60.21;99442.13;1670113;83;21308;-63
2022/04/03 00:49:14;;;;;;;5.70;3.30;;;;;;;-3.16;60.24;99437.03;1674645;83;21147;-62
2022/04/03 00:51:41;;;;;;;5.78;3.52;;;;;;;-3.15;60.26;99440.00;1689952;82;21534;-62
2022/04/03 00:54:08;;;;;;;6.40;4.10;;;;;;;-3.15;60.26;99440.00;1685171;82;20991;-62
2022/04/03 00:56:36;;;;;;;17.25;3.80;;;;;;;-3.16;60.27;99437.03;1687836;83;21567;-62
2022/04/03 00:59:02;;;;;;;;;;;;;;;-3.17;60.28;99434.02;1689635;83;21046;-62
2022/04/03 01:01:29;;;;;;;9.27;3.80;;;;;;;-3.16;60.38;99435.75;1686637;82;20455;-62
2022/04/03 01:03:55;;;;;;;8.70;4.60;;;;;;;-3.18;60.35;99437.44;1686860;83;21030;-62
2022/04/03 01:06:22;;;;;;;6.33;3.08;;;;;;;-3.20;60.38;99439.13;1683381;83;21463;-62
2022/04/03 01:08:48;;;;;;;7.87;3.07;;;;;;;-3.21;60.39;99435.72;1687256;83;20950;-62
2022/04/03 01:11:21;;;;;;;5.20;3.17;;;;;;;-3.20;60.44;99432.73;1695467;82;21087;-62
2022/04/03 01:13:49;;;;;;;5.15;3.33;;;;;;;-3.15;60.50;99440.00;1696175;82;21411;-63
2022/04/03 01:16:16;;;;;;;5.15;2.77;;;;;;;-3.12;60.53;99438.73;1732935;82;21071;-62
2022/04/03 01:18:43;;;;;;;6.35;3.35;;;;;;;-3.10;60.54;99433.21;1725519;82;24872;-62
2022/04/03 01:21:10;;;;;;;6.12;2.90;;;;;;;-3.09;60.58;99434.91;1687904;84;20980;-62
2022/04/03 01:23:37;;;;;;;4.85;2.87;;;;;;;-3.12;60.58;99437.88;1726015;81;21519;-63
2022/04/03 01:26:05;;;;;;;3.63;2.67;;;;;;;-3.22;60.72;99428.92;1699828;82;21084;-62
2022/04/03 01:28:32;;;;;;;12.82;3.60;;;;;;;-3.22;60.72;99428.92;1697095;84;21667;-62
2022/04/03 01:30:59;;;;;;;4.60;2.35;;;;;;;-3.19;60.74;99425.53;1701756;82;21487;-62
2022/04/03 01:33:28;;;;;;;3.90;2.40;;;;;;;-3.16;60.76;99430.64;1698697;82;21092;-62
2022/04/03 01:35:55;;;;;;;4.25;2.58;;;;;;;-3.14;60.79;99435.30;1660254;84;21293;-62
2022/04/03 01:38:22;;;;;;;7.90;3.20;;;;;;;-3.13;60.80;99430.65;1689258;84;21044;-62
2022/04/03 01:40:49;;;;;;;9.03;2.95;;;;;;;-3.13;60.81;99433.20;1695091;82;21012;-62
2022/04/03 01:43:16;;;;;;;7.10;4.53;;;;;;;-3.14;60.84;99432.75;1700391;83;21468;-63
2022/04/03 01:45:42;;;;;;;6.55;3.00;;;;;;;-3.18;60.74;99431.05;1699389;83;20966;-63
2022/04/03 01:48:11;;;;;;;5.95;3.33;;;;;;;-3.27;60.70;99434.86;1694260;84;21060;-62
2022/04/03 01:50:38;;;;;;;5.72;3.58;;;;;;;-3.35;60.76;99426.31;1679716;84;21000;-62
2022/04/03 01:53:05;;;;;;;8.60;3.83;;;;;;;-3.45;60.75;99426.25;1677801;84;21025;-62
2022/04/03 01:55:32;;;;;;;6.40;3.45;;;;;;;-3.58;60.83;99429.61;1668664;84;21315;-62
2022/04/03 01:58:00;;;;;;;8.28;4.37;;;;;;;-3.64;60.97;99432.11;1700837;83;21071;-61
2022/04/03 02:00:27;;;;;;;7.67;3.95;;;;;;;-3.69;61.01;99433.80;1723708;82;20907;-62
2022/04/03 02:02:53;;;;;;;10.93;4.20;;;;;;;-3.75;61.07;99435.02;1724872;82;21589;-62
2022/04/03 02:05:21;;;;;;;9.90;4.15;;;;;;;-3.81;61.17;99434.56;1725371;82;21067;-62
2022/04/03 02:07:47;;;;;;;;;;;;;;;-3.80;61.24;99435.45;1702516;82;21821;-62
2022/04/03 02:10:14;;;;;;;11.20;3.90;;;;;;;-3.78;61.37;99439.72;1679027;84;20187;-62
2022/04/03 02:12:43;;;;;;;8.10;3.98;;;;;;;-3.80;61.25;99431.62;1698924;82;20989;-63
2022/04/03 02:15:15;;;;;;;8.70;3.52;;;;;;;-3.82;61.32;99432.88;1697802;82;22018;-62
2022/04/03 02:17:40;;;;;;;5.95;3.62;;;;;;;-3.86;61.44;99432.01;1661983;84;21103;-62
2022/04/03 02:20:09;;;;;;;5.62;3.25;;;;;;;-3.91;61.26;99432.39;1667302;84;21954;-62
2022/04/03 02:22:36;;;;;;;6.35;3.25;;;;;;;-3.96;61.38;99434.05;1687687;84;20965;-62
2022/04/03 02:25:09;;;;;;;7.67;3.75;;;;;;;-4.00;61.43;99436.17;1686154;83;20914;-62
2022/04/03 02:27:36;;;;;;;8.48;3.83;;;;;;;-4.06;61.48;99436.98;1686190;84;21543;-62
2022/04/03 02:30:06;;;;;;;5.70;3.45;;;;;;;-4.09;61.63;99430.98;1670524;84;21010;-62
2022/04/03 02:32:33;;;;;;;5.42;3.17;;;;;;;-4.14;61.66;99429.70;1680311;84;21863;-62
2022/04/03 02:34:59;;;;;;;4.42;2.70;;;;;;;-4.16;61.77;99435.63;1685384;84;21076;-62
2022/04/03 02:37:26;;;;;;;4.53;3.08;;;;;;;-4.18;61.91;99430.92;1686027;84;20994;-63
2022/04/03 02:39:53;;;;;;;7.40;2.60;;;;;;;-4.21;61.88;99430.91;1651254;85;21036;-62
2022/04/03 02:42:19;;;;;;;5.03;3.03;;;;;;;-4.22;62.14;99433.03;1669203;84;21116;-62
2022/04/03 02:44:46;;;;;;;6.27;3.37;;;;;;;-4.21;62.21;99433.45;1662256;84;21557;-63
2022/04/03 02:47:14;;;;;;;7.70;3.58;;;;;;;-4.24;62.08;99428.34;1659800;85;21045;-62
2022/04/03 02:49:40;;;;;;;4.33;2.90;;;;;;;-4.29;62.18;99425.73;1668013;84;21033;-63
2022/04/03 02:52:08;;;;;;;6.70;3.20;;;;;;;-4.34;62.10;99428.27;1671170;84;20974;-63
2022/04/03 02:54:34;;;;;;;3.30;2.42;;;;;;;-4.35;62.23;99429.09;1662163;84;21741;-63
2022/04/03 02:57:03;;;;;;;4.00;2.92;;;;;;;-4.31;62.45;99424.90;1678804;84;22118;-63
2022/04/03 02:59:29;;;;;;;5.03;2.35;;;;;;;-4.32;62.41;99425.72;1648987;85;21032;-62
2022/04/03 03:01:56;;;;;;;4.20;2.30;;;;;;;-4.33;62.51;99421.47;1692968;84;21573;-63
2022/04/03 03:04:23;;;;;;;3.43;2.27;;;;;;;-4.33;62.51;99421.47;1660772;85;20974;-63
2022/04/03 03:06:49;;;;;;;2.70;2.17;;;;;;;-4.34;62.46;99424.84;1674899;85;21075;-63
2022/04/03 03:09:17;;;;;;;7.47;2.87;;;;;;;-4.33;62.60;99418.92;1691416;84;21450;-63
2022/04/03 03:11:44;;;;;;;2.95;2.08;;;;;;;-4.31;62.62;99425.74;1683469;84;21032;-62
2022/04/03 03:14:10;;;;;;;3.50;2.55;;;;;;;-4.28;62.74;99423.22;1686803;84;21013;-63
2022/04/03 03:16:37;;;;;;;4.13;2.60;;;;;;;-4.27;62.72;99417.27;1698150;83;21000;-63
2022/04/03 03:19:04;;;;;;;3.40;2.00;;;;;;;-4.27;62.76;99421.09;1700066;84;21122;-63
2022/04/03 03:21:31;;;;;;;5.08;2.40;;;;;;;-4.28;62.72;99418.12;1700314;82;21511;-63
2022/04/03 03:24:01;;;;;;;3.63;2.60;;;;;;;-4.28;62.79;99418.12;1679457;83;21549;-63
2022/04/03 03:26:28;;;;;;;5.53;2.42;;;;;;;-4.39;62.71;99404.44;1679229;84;22009;-62
2022/04/03 03:28:55;;;;;;;6.60;2.52;;;;;;;-4.36;62.77;99418.48;1679482;85;20981;-63
2022/04/03 03:31:22;;;;;;;5.90;2.45;;;;;;;-4.37;62.82;99412.96;1681116;84;21502;-63
2022/04/03 03:33:48;;;;;;;4.40;2.23;;;;;;;-4.37;62.88;99422.27;1678510;84;21040;-63
2022/04/03 03:36:16;;;;;;;5.47;2.00;;;;;;;-4.40;62.96;99410.36;1679572;84;20957;-63
2022/04/03 03:38:43;;;;;;;;;;;;;;;-4.41;63.09;99411.21;1674613;85;20926;-63
2022/04/03 03:41:10;;;;;;;2.12;1.90;;;;;;;-4.40;63.23;99412.91;1679814;85;20191;-63
2022/04/03 03:43:37;;;;;;;4.28;2.27;;;;;;;-4.44;63.11;99413.73;1679679;84;21028;-63
2022/04/03 03:46:03;;;;;;;4.20;2.27;;;;;;;-4.51;62.98;99407.75;1682391;84;21109;-63
2022/04/03 03:48:30;;;;;;;7.40;2.47;;;;;;;-4.55;63.06;99417.89;1681773;84;21542;-62
2022/04/03 03:50:57;;;;;;;5.47;3.92;;;;;;;-4.59;63.11;99413.63;1700942;83;21020;-63
2022/04/03 03:53:24;;;;;;;7.40;4.00;;;;;;;-4.65;63.01;99417.36;1697889;83;22025;-63
2022/04/03 03:55:51;;;;;;;;;;;;;;;-4.80;62.86;99416.39;1673195;84;21091;-63
2022/04/03 03:58:17;;;;;;;7.17;4.13;;;;;;;-5.01;62.89;99407.28;1695708;84;21629;-62
2022/04/03 04:00:44;;;;;;;8.60;3.90;;;;;;;-5.20;62.97;99400.70;1695333;84;22511;-63
2022/04/03 04:03:11;;;;;;;7.90;4.50;;;;;;;-5.35;63.07;99409.42;1710991;82;21568;-63
2022/04/03 04:05:38;;;;;;;8.20;4.78;;;;;;;-5.48;63.14;99402.51;1701303;83;20961;-64
2022/04/03 04:08:09;;;;;;;9.98;4.97;;;;;;;-5.57;63.19;99404.92;1664325;84;21114;-63
2022/04/03 04:10:36;;;;;;;15.40;6.28;;;;;;;-5.66;63.29;99406.53;1711173;83;22495;-63
2022/04/03 04:13:03;;;;;;;13.40;5.62;;;;;;;-5.73;63.37;99409.83;1699762;84;20918;-63
2022/04/03 04:15:30;;;;;;;11.38;4.87;;;;;;;-5.76;63.51;99413.60;1702338;82;20991;-63
2022/04/03 04:17:57;;;;;;;9.45;4.95;;;;;;;-5.77;63.63;99416.98;1705737;82;21099;-62
2022/04/03 04:20:24;;;;;;;16.87;7.47;;;;;;;-5.81;63.69;99413.95;1701106;84;20955;-62
2022/04/03 04:22:52;;;;;;;12.23;5.37;;;;;;;-5.85;63.73;99418.57;1683190;84;21998;-62
2022/04/03 04:25:21;;;;;;;11.68;6.30;;;;;;;-5.84;63.81;99421.54;1678871;84;21001;-62
2022/04/03 04:27:48;;;;;;;16.93;6.75;;;;;;;-5.81;63.94;99426.66;1728870;81;20973;-63
2022/04/03 04:30:16;;;;;;;13.53;6.28;;;;;;;-5.72;64.00;99421.69;1703711;82;21160;-63
2022/04/03 04:32:44;;;;;;;13.00;6.78;;;;;;;-5.62;64.08;99420.98;1703410;84;21000;-63
2022/04/03 04:35:13;;;;;;;10.53;6.03;;;;;;;-5.34;64.20;99411.58;1701174;83;21369;-61
2022/04/03 04:37:42;;;;;;;11.75;5.22;;;;;;;-5.24;63.94;99417.19;1703228;83;21051;-62
2022/04/03 04:40:12;;;;;;;11.20;5.80;;;;;;;-5.18;63.95;99418.13;1702484;82;21012;-63
2022/04/03 04:42:38;;;;;;;11.50;6.12;;;;;;;-5.08;64.01;99409.31;1702073;84;21094;-63
2022/04/03 04:45:07;;;;;;;11.15;5.12;;;;;;;-4.92;64.25;99410.34;1701446;83;20967;-63
2022/04/03 04:47:35;;;;;;;13.50;6.05;;;;;;;-4.76;64.35;99404.13;1667885;84;21132;-62
2022/04/03 04:50:03;;;;;;;9.58;5.72;;;;;;;-4.57;64.36;99409.38;1670807;84;21122;-62
2022/04/03 04:52:30;;;;;;;12.65;5.15;;;;;;;-4.43;64.29;99411.61;1722300;82;21001;-63
2022/04/03 04:54:57;;;;;;;13.13;5.50;;;;;;;-4.25;64.44;99411.34;1723737;81;21123;-63
2022/04/03 04:57:23;;;;;;;5.73;3.93;;;;;;;-3.73;65.01;99411.66;1725819;81;21004;-63
2022/04/03 04:59:51;;;;;;;10.67;4.87;;;;;;;-3.08;64.48;99404.70;1726252;83;21538;-63
2022/04/03 05:02:17;;;;;;;13.62;4.85;;;;;;;-2.74;64.18;99411.16;1727130;81;21643;-63
2022/04/03 05:04:44;;;;;;;9.23;3.97;;;;;;;-2.75;63.78;99415.82;1725936;82;21011;-63
2022/04/03 05:07:12;;;;;;;7.80;4.30;;;;;;;-2.96;63.70;99414.94;1723237;82;21072;-63
2022/04/03 05:09:43;;;;;;;10.60;4.17;;;;;;;-3.12;63.85;99414.47;1722612;82;21632;-63
2022/04/03 05:12:12;;;;;;;10.55;4.65;;;;;;;-3.24;64.05;99420.82;1728610;81;21605;-63
2022/04/03 05:14:39;;;;;;;8.15;3.52;;;;;;;-3.30;64.18;99416.98;1723830;81;21126;-64
2022/04/03 05:17:06;;;;;;;7.15;3.87;;;;;;;-3.37;64.24;99424.59;1711529;81;28721;-63
2022/04/03 05:19:34;;;;;;;8.83;3.83;;;;;;;-3.37;64.42;99425.02;1710677;83;20954;-63
2022/04/03 05:22:00;;;;;;;7.12;3.62;;;;;;;-3.30;64.47;99434.84;1712801;82;21056;-63
2022/04/03 05:24:29;;;;;;;7.85;3.95;;;;;;;-3.27;64.57;99425.49;1713033;83;21091;-66
2022/04/03 05:26:56;;;;;;;7.70;3.70;;;;;;;-3.27;64.63;99431.03;1712390;82;21032;-63
2022/04/03 05:29:23;;;;;;;6.60;3.83;;;;;;;-3.20;64.79;99436.56;1715274;82;21662;-63
2022/04/03 05:31:50;;;;;;;10.82;3.75;;;;;;;-3.07;64.92;99434.92;1712799;82;20962;-63
2022/04/03 05:34:16;;;;;;;5.45;3.80;;;;;;;-3.02;64.81;99428.98;1710685;83;20989;-63
2022/04/03 05:36:43;;;;;;;5.43;3.23;;;;;;;-3.02;64.79;99423.88;1698958;83;21034;-64
2022/04/03 05:39:10;;;;;;;6.37;3.72;;;;;;;-3.00;64.84;99428.54;1698169;83;21551;-64
2022/04/03 05:41:37;;;;;;;13.72;4.30;;;;;;;-2.99;64.88;99431.54;1669217;85;21342;-62
2022/04/03 05:44:05;;;;;;;5.97;3.77;;;;;;;-2.96;64.97;99428.98;1710059;83;21542;-63
2022/04/03 05:46:32;;;;;;;6.62;3.65;;;;;;;-2.81;65.15;99427.31;1672436;84;21131;-62
2022/04/03 05:48:59;;;;;;;10.50;3.33;;;;;;;-2.77;65.05;99432.88;1701363;84;21881;-64
2022/04/03 05:51:26;;;;;;;14.63;3.35;;;;;;;-2.75;65.09;99432.44;1699939;82;21512;-62
2022/04/03 05:53:53;;;;;;;4.87;3.70;;;;;;;-2.73;65.22;99440.96;1702367;83;21988;-62
2022/04/03 05:56:26;;;;;;;10.72;5.42;;;;;;;-2.69;65.30;99445.22;1661746;85;21065;-62
2022/04/03 05:58:48;;;;;;;10.53;5.95;;;;;;;-2.61;65.39;99440.12;1714816;82;21072;-64
2022/04/03 06:01:15;;;;;;;8.17;4.77;;;;;;;-2.50;65.42;99436.72;1673636;84;21554;-64
2022/04/03 06:03:42;;;;;;;18.42;13.40;;;;;;;-2.37;65.42;99441.86;1701855;83;20952;-63
2022/04/03 06:06:08;;;;;;;13.15;7.85;;;;;;;-2.21;65.56;99446.14;1703708;83;21521;-63
2022/04/03 06:08:35;;;;;;;10.70;5.67;;;;;;;-2.05;65.66;99441.41;1679621;84;21095;-63
2022/04/03 06:11:04;;;;;;;9.93;4.25;;;;;;;-1.84;65.73;99438.42;1681961;84;21690;-64
2022/04/03 06:13:32;;;;;;;8.55;4.17;;;;;;;-1.66;65.63;99432.40;1673402;84;21729;-63
2022/04/03 06:18:37;;;;;;;8.60;5.00;;;;;;;-1.32;65.52;99438.26;1799351;78;21026;-63
2022/04/03 06:21:04;;;;;;;8.27;5.57;;;;;;;-1.11;65.67;99431.36;1812002;78;21011;-65
2022/04/03 06:23:30;;;;;;;8.63;5.23;;;;;;;-0.91;65.69;99432.11;1820564;77;21106;-65
2022/04/03 06:25:58;;;;;;;8.30;5.45;;;;;;;-0.69;65.86;99431.12;1775530;80;21422;-64
2022/04/03 06:28:25;;;;;;;7.42;4.50;;;;;;;-0.46;65.69;99430.11;1768323;80;20995;-64
2022/04/03 06:30:56;;;;;;;7.10;4.00;;;;;;;-0.27;65.69;99430.83;1816217;77;21548;-63
2022/04/03 06:33:24;;;;;;;12.15;4.40;;;;;;;-0.05;65.72;99432.78;1826182;77;21047;-63
2022/04/03 06:35:51;;;;;;;7.10;4.65;;;;;;;0.18;65.71;99442.39;1806365;78;20982;-63
2022/04/03 06:38:18;;;;;;;5.08;3.80;;;;;;;0.44;65.73;99433.57;1774314;78;22242;-63
2022/04/03 06:40:52;;;;;;;8.00;4.28;;;;;;;0.61;65.59;99434.22;1770722;79;21548;-64
2022/04/03 06:43:21;;;;;;;8.40;4.50;;;;;;;0.74;65.52;99432.38;1781844;79;21000;-64
2022/04/03 06:45:50;;;;;;;6.50;3.92;;;;;;;0.83;65.33;99436.55;1781823;78;21516;-64
2022/04/03 06:48:18;;;;;;;9.13;4.17;;;;;;;0.91;65.36;99433.89;1781997;80;20989;-64
2022/04/03 06:50:45;;;;;;;6.45;3.40;;;;;;;1.02;65.32;99432.88;1812248;78;26084;-63
2022/04/03 06:53:15;;;;;;;5.15;3.37;;;;;;;1.02;64.94;99426.45;1808133;77;21633;-67
2022/04/03 06:55:42;;;;;;;5.72;3.52;;;;;;;1.01;65.16;99428.62;1805173;78;20999;-65
2022/04/03 06:58:09;;;;;;;4.05;2.45;;;;;;;1.15;65.52;99431.41;1817518;77;21621;-65
2022/04/03 07:00:40;;;;;;;4.70;2.83;;;;;;;1.29;65.51;99426.95;1782975;79;21159;-65
2022/04/03 07:03:09;;;;;;;7.85;3.45;;;;;;;1.45;65.44;99426.28;1799447;78;21100;-64
2022/04/03 07:05:38;;;;;;;7.45;4.22;;;;;;;1.62;65.61;99418.30;1776101;78;21040;-63
2022/04/03 07:08:06;;;;;;;7.92;4.47;;;;;;;1.85;65.61;99418.80;1826621;77;21566;-64
2022/04/03 07:10:33;;;;;;;5.67;4.17;;;;;;;1.97;65.25;99418.57;1820415;77;20967;-63
2022/04/03 07:13:00;;;;;;;5.65;3.90;;;;;;;2.15;65.42;99424.27;1818968;77;20932;-63
2022/04/03 07:15:27;;;;;;;4.58;3.20;;;;;;;2.31;65.38;99415.39;1816693;77;21454;-63
2022/04/03 07:17:53;;;;;;;5.35;3.25;;;;;;;2.49;65.28;99421.07;1817219;77;20974;-64
2022/04/03 07:20:20;;;;;;;8.83;4.30;;;;;;;2.50;64.99;99412.48;1818850;78;20905;-63
2022/04/03 07:22:47;;;;;;;7.50;4.20;;;;;;;2.52;64.95;99418.43;1815446;78;20996;-64
2022/04/03 07:25:14;;;;;;;6.80;4.40;;;;;;;2.33;64.73;99395.61;1818779;78;21551;-63
2022/04/03 07:27:42;;;;;;;;;;;;;;;2.41;64.76;99414.35;1810016;78;21470;-62
2022/04/03 07:30:12;;;;;;;5.67;3.08;;;;;;;2.38;64.63;99416.99;1810278;78;20123;-63
2022/04/03 07:32:40;;;;;;;3.40;2.60;;;;;;;2.33;64.64;99421.37;1810756;78;21150;-66
2022/04/03 07:35:08;;;;;;;4.53;2.77;;;;;;;2.47;65.11;99426.27;1817366;78;20919;-64
2022/04/03 07:37:36;;;;;;;7.42;3.12;;;;;;;2.80;65.43;99417.03;1812011;78;21100;-64
2022/04/03 07:40:07;;;;;;;5.87;2.30;;;;;;;3.17;65.42;99411.08;1822011;77;21446;-64
2022/04/03 07:42:36;;;;;;;3.95;2.62;;;;;;;3.53;65.31;99421.45;1819523;78;21087;-63
2022/04/03 07:45:05;;;;;;;6.20;2.80;;;;;;;3.86;65.21;99418.92;1800567;78;21077;-64
2022/04/03 07:47:54;;;;;;;4.10;2.60;;;;;;;4.12;65.16;99421.72;1812225;78;21591;-63
2022/04/03 07:50:21;;;;;;;4.20;2.22;;;;;;;4.31;64.87;99416.89;1755664;80;21061;-63
2022/04/03 07:52:53;;;;;;;3.20;2.20;;;;;;;4.48;64.64;99420.31;1755501;80;21080;-63
2022/04/03 07:55:25;;;;;;;2.55;1.80;;;;;;;4.56;64.42;99419.66;1756104;80;20927;-63
2022/04/03 07:57:52;;;;;;;3.83;2.15;;;;;;;4.75;64.53;99413.99;1755071;80;22371;-64
2022/04/03 08:00:19;;;;;;;2.15;1.65;;;;;;;4.86;64.20;99414.53;1754663;80;20975;-64
2022/04/03 08:02:46;;;;;;;3.05;1.62;;;;;;;4.94;64.05;99419.04;1752911;80;26760;-63
2022/04/03 08:05:13;;;;;;;3.30;1.62;;;;;;;5.00;63.63;99414.97;1754573;80;22281;-63
2022/04/03 08:07:45;;;;;;;;;;;;;;;4.82;61.78;99415.52;1751940;80;21115;-64
2022/04/03 08:10:15;;;;;;;3.67;1.60;;;;;;;4.32;61.22;99410.02;1750907;80;20100;-63
2022/04/03 08:12:45;;;;;;;3.20;1.32;;;;;;;4.26;62.32;99414.45;1733193;80;21071;-63
2022/04/03 08:15:14;;;;;;;1.05;0.80;;;;;;;4.52;60.92;99410.31;1754240;80;21113;-63
2022/04/03 08:17:42;;;;;;;1.45;0.80;;;;;;;4.34;59.60;99412.09;1748528;80;21588;-63
2022/04/03 08:20:11;;;;;;;;;;;;;;;4.11;59.26;99410.95;1753758;80;21024;-63
2022/04/03 08:22:43;;;;;;;1.32;1.00;;;;;;;3.83;56.56;99411.26;1755067;80;20114;-63
2022/04/03 08:25:08;;;;;;;1.32;0.90;;;;;;;4.05;59.04;99415.00;1749518;80;21081;-63
2022/04/03 08:27:52;;;;;;;2.52;1.25;;;;;;;4.14;59.20;99407.00;1770005;78;21055;-63
2022/04/03 08:30:29;;;;;;;3.42;1.00;;;;;;;4.52;59.69;99410.31;1806626;78;21126;-62
2022/04/03 08:32:57;;;;;;;2.22;1.00;;;;;;;4.68;59.59;99401.23;1801738;78;21471;-63
2022/04/03 08:35:26;;;;;;;1.75;1.17;;;;;;;5.06;59.92;99407.02;1818851;77;20993;-63
2022/04/03 08:37:53;;;;;;;4.87;1.20;;;;;;;5.18;58.86;99410.14;1798634;78;20970;-63
2022/04/03 08:40:22;;;;;;;;;;;;;;;5.09;58.93;99407.37;1795992;78;20979;-62
2022/04/03 08:42:52;;;;;;;2.17;0.95;;;;;;;5.01;57.93;99406.76;1811104;77;21595;-62
2022/04/03 08:45:20;;;;;;;2.77;1.25;;;;;;;4.57;53.05;99412.78;1822792;77;20961;-61
2022/04/03 08:47:56;;;;;;;1.98;1.22;;;;;;;3.97;55.24;99407.44;1813699;77;20979;-61
2022/04/03 08:50:33;;;;;;;1.62;0.98;;;;;;;4.08;56.83;99398.57;1816561;77;20930;-63
2022/04/03 08:53:10;;;;;;;1.77;1.05;;;;;;;4.18;56.24;99394.42;1817038;77;20975;-63
2022/04/03 08:55:34;;;;;;;2.30;0.93;;;;;;;4.30;57.07;99401.44;1811253;77;21629;-62
2022/04/03 08:58:02;;;;;;;;;;;;;;;4.56;57.57;99402.02;1814886;77;21485;-62
2022/04/03 09:00:32;;;;;;;1.85;1.07;;;;;;;4.63;54.04;99402.26;1812923;77;20520;-61
2022/04/03 09:03:00;;;;;;;1.50;0.95;;;;;;;4.32;54.06;99402.26;1769534;79;20946;-63
2022/04/03 09:05:38;;;;;;;2.02;0.90;;;;;;;4.22;54.86;99405.06;1814589;77;20996;-64
2022/04/03 09:08:11;;;;;;;3.27;1.10;;;;;;;4.29;55.40;99404.93;1807286;77;21072;-63
2022/04/03 09:10:41;;;;;;;2.12;1.20;;;;;;;4.02;53.77;99404.74;1792924;78;21003;-63
2022/04/03 09:13:08;;;;;;;2.27;1.00;;;;;;;3.91;54.88;99401.59;1804353;78;20989;-63
2022/04/03 09:15:35;;;;;;;2.30;1.55;;;;;;;3.97;54.15;99406.59;1801144;78;20959;-63
2022/04/03 09:18:04;;;;;;;2.87;1.02;;;;;;;4.19;54.52;99397.40;1805676;77;21527;-64
2022/04/03 09:20:36;;;;;;;2.12;0.90;;;;;;;4.61;52.30;99404.03;1809710;78;21838;-63
2022/04/03 09:23:07;;;;;;;3.37;1.22;;;;;;;4.74;53.65;99394.20;1817333;77;20899;-64
2022/04/03 09:25:46;;;;;;;1.72;0.90;;;;;;;5.37;55.65;99390.55;1812138;77;20971;-63
2022/04/03 09:28:15;;;;;;;1.15;0.93;;;;;;;5.46;51.29;99392.88;1789330;78;20999;-65
2022/04/03 09:30:47;;;;;;;2.65;1.20;;;;;;;4.84;50.91;99391.73;1816966;77;21568;-63
2022/04/03 09:33:20;;;;;;;1.20;0.90;;;;;;;4.41;51.09;99388.63;1816035;77;21069;-64
2022/04/03 09:36:02;;;;;;;0.95;0.80;;;;;;;4.18;52.17;99385.38;1817800;77;20927;-63
2022/04/03 09:38:31;;;;;;;1.45;0.98;;;;;;;4.43;51.63;99384.72;1809850;77;21076;-63
2022/04/03 09:41:00;;;;;;;3.10;1.67;;;;;;;4.28;50.41;99374.78;1818314;77;20887;-63
2022/04/03 09:43:39;;;;;;;2.45;1.37;;;;;;;4.22;50.17;99376.64;1816794;77;21017;-63
2022/04/03 09:46:06;;;;;;;1.47;1.02;;;;;;;4.44;50.51;99379.94;1814678;77;22067;-63
2022/04/03 09:48:41;;;;;;;2.98;0.98;;;;;;;4.50;51.12;99369.42;1814681;77;22163;-63
2022/04/03 09:51:22;;;;;;;2.42;1.07;;;;;;;4.42;51.14;99372.66;1815074;77;21064;-63
2022/04/03 09:53:59;;;;;;;1.12;0.93;;;;;;;4.31;50.68;99376.83;1820832;77;20988;-63
2022/04/03 09:56:33;;;;;;;2.67;1.02;;;;;;;4.28;50.76;99367.03;1817769;77;21035;-63
2022/04/03 09:59:03;;;;;;;1.37;0.98;;;;;;;4.34;49.95;99369.44;1818574;77;21532;-64
2022/04/03 10:01:35;;;;;;;4.08;1.30;;;;;;;4.00;47.20;99376.80;1797680;78;20995;-63
2022/04/03 10:04:05;;;;;;;1.98;1.27;;;;;;;4.00;48.56;99367.77;1803669;77;21053;-62
2022/04/03 10:06:34;;;;;;;2.55;1.00;;;;;;;3.99;49.44;99359.62;1809460;77;21044;-63
2022/04/03 10:09:02;;;;;;;1.35;1.00;;;;;;;4.47;46.42;99365.63;1818185;78;21628;-63
2022/04/03 10:11:33;;;;;;;2.70;1.30;;;;;;;4.80;45.89;99356.06;1807118;77;21064;-64
2022/04/03 10:14:01;;;;;;;1.92;1.02;;;;;;;4.90;47.70;99364.38;1812696;77;21051;-67
2022/04/03 10:16:37;;;;;;;3.22;1.17;;;;;;;4.70;48.48;99358.09;1792666;78;20967;-63
2022/04/03 10:19:05;;;;;;;1.85;1.00;;;;;;;4.33;47.90;99361.30;1787259;78;20965;-63
2022/04/03 10:21:49;;;;;;;2.05;1.20;;;;;;;4.23;47.64;99364.14;1795396;78;20986;-63
2022/04/03 10:24:28;;;;;;;3.12;0.80;;;;;;;4.06;47.15;99357.26;1797605;78;21106;-63
2022/04/03 10:27:14;;;;;;;2.62;1.20;;;;;;;4.11;49.28;99357.98;1795360;78;21468;-63
2022/04/03 10:29:45;;;;;;;1.90;1.00;;;;;;;4.39;49.67;99355.95;1774469;80;20954;-63
2022/04/03 10:32:30;;;;;;;1.98;1.05;;;;;;;4.75;49.99;99357.09;1770955;79;20926;-63
2022/04/03 10:35:01;;;;;;;1.00;0.90;;;;;;;4.57;47.36;99359.33;1769508;79;21086;-63
2022/04/03 10:37:41;;;;;;;1.27;0.80;;;;;;;4.36;48.51;99352.16;1773765;79;21079;-64
2022/04/03 10:40:18;;;;;;;3.50;0.90;;;;;;;4.51;48.94;99351.75;1776597;79;20942;-64
2022/04/03 10:42:58;;;;;;;2.35;1.10;;;;;;;4.66;49.09;99351.29;1776551;80;21010;-63
2022/04/03 10:45:35;;;;;;;2.55;1.05;;;;;;;4.58;47.84;99345.94;1771913;79;21611;-64
2022/04/03 10:48:31;;;;;;;1.90;0.95;;;;;;;4.50;48.44;99357.79;1775591;79;20905;-63
2022/04/03 10:51:01;;;;;;;6.17;0.93;;;;;;;4.40;48.66;99347.33;1770813;79;21093;-64
2022/04/03 10:53:34;;;;;;;2.40;0.82;;;;;;;4.57;48.80;99341.22;1772408;79;20993;-64
2022/04/03 10:56:09;;;;;;;1.60;0.90;;;;;;;5.06;48.39;99342.33;1774725;80;20996;-62
2022/04/03 10:58:44;;;;;;;2.15;0.80;;;;;;;5.45;49.11;99338.54;1776301;79;21494;-62
2022/04/03 11:01:28;;;;;;;3.58;1.10;;;;;;;5.56;45.84;99334.70;1772821;79;21088;-62
2022/04/03 11:04:08;;;;;;;1.95;1.00;;;;;;;5.29;47.01;99340.77;1726803;81;21133;-62
2022/04/03 11:06:37;;;;;;;1.92;1.05;;;;;;;5.04;46.49;99341.55;1781895;79;20990;-61
2022/04/03 11:09:08;;;;;;;3.33;1.10;;;;;;;4.70;47.23;99349.45;1762618;80;21477;-61
2022/04/03 11:11:39;;;;;;;2.80;0.95;;;;;;;4.52;46.48;99335.33;1762182;80;21006;-62
2022/04/03 11:14:12;;;;;;;3.02;1.20;;;;;;;4.44;46.30;99337.28;1757607;80;20894;-61
2022/04/03 11:16:51;;;;;;;1.25;0.68;;;;;;;4.62;47.01;99323.84;1762083;80;21959;-62
2022/04/03 11:19:38;;;;;;;4.15;0.90;;;;;;;5.11;47.11;99331.39;1746963;80;20989;-64
2022/04/03 11:22:05;;;;;;;4.55;1.22;;;;;;;5.52;47.93;99324.05;1759701;80;21582;-64
2022/04/03 11:24:36;;;;;;;0.93;0.50;;;;;;;6.10;48.39;99314.75;1765802;79;21570;-63
2022/04/03 11:27:04;;;;;;;3.27;0.88;;;;;;;5.97;44.41;99314.36;1754147;80;20926;-63
2022/04/03 11:29:33;;;;;;;3.75;0.72;;;;;;;5.80;46.79;99312.77;1750939;80;21151;-65
2022/04/03 11:32:07;;;;;;;2.00;0.98;;;;;;;5.39;45.33;99331.81;1766096;79;22321;-62
2022/04/03 11:34:35;;;;;;;3.27;0.90;;;;;;;4.90;45.69;99322.98;1759410;79;21004;-62
2022/04/03 11:37:05;;;;;;;1.92;0.80;;;;;;;4.75;45.03;99326.05;1788465;79;21492;-64
2022/04/03 11:39:39;;;;;;;2.05;1.10;;;;;;;4.78;46.12;99315.61;1783380;79;21054;-64
2022/04/03 11:42:09;;;;;;;2.50;0.78;;;;;;;4.56;42.88;99328.33;1738561;81;21024;-63
2022/04/03 11:44:42;;;;;;;0.75;0.70;;;;;;;4.46;45.09;99322.59;1778506;79;21628;-62
2022/04/03 11:47:21;;;;;;;2.35;0.95;;;;;;;4.30;44.79;99318.73;1791083;78;21496;-62
2022/04/03 11:50:15;;;;;;;3.30;1.45;;;;;;;4.33;45.28;99313.48;1776556;79;21021;-63